Time;durP1;ratioP1;P1;durP2;ratioP2;P2;SDS_P1;SDS_P2;PMS_P1;PMS_P2;Temp;Humidity;BMP_temperature;BMP_pressure;BME280_temperature;BME280_humidity;BME280_pressure;Samples;Min_cycle;Max_cycle;Signal;HPM_P1;HPM_P2
2022/05/12 00:00:24;;;;;;;4.50;3.15;;;22.80;32.50;;;22.80;30.04;97406.81;5042798;28;20049;-35
2022/05/12 00:02:52;;;;;;;2.80;2.58;;;22.70;32.80;;;22.79;30.20;97411.41;5042772;28;20258;-36
2022/05/12 00:05:21;;;;;;;2.90;2.60;;;22.60;32.90;;;22.78;30.55;97404.34;5042188;28;20052;-35
2022/05/12 00:07:50;;;;;;;7.10;3.25;;;22.60;33.30;;;22.79;30.53;97405.97;5040580;28;20274;-35
2022/05/12 00:10:23;;;;;;;3.63;2.67;;;22.60;33.60;;;22.77;30.77;97410.00;5043073;28;20051;-35
2022/05/12 00:12:52;;;;;;;2.60;2.10;;;22.60;34.00;;;22.74;30.81;97408.63;5042847;28;20042;-36
2022/05/12 00:15:24;;;;;;;4.30;2.70;;;22.50;34.00;;;22.70;31.19;97417.47;5042208;28;20055;-36
2022/05/12 00:17:53;;;;;;;5.13;3.10;;;22.50;34.60;;;22.66;31.04;97413.59;5042513;28;20051;-35
2022/05/12 00:20:23;;;;;;;3.25;2.67;;;22.40;34.70;;;22.60;31.45;97416.25;5040551;28;20049;-35
2022/05/12 00:22:51;;;;;;;3.08;2.58;;;22.30;35.40;;;22.58;31.98;97428.41;5042367;28;20057;-35
2022/05/12 00:25:23;;;;;;;6.30;2.90;;;22.20;35.50;;;22.52;32.19;97427.47;5042021;28;20097;-35
2022/05/12 00:27:50;;;;;;;3.55;2.85;;;22.10;36.10;;;22.44;32.15;97427.06;5042267;28;20045;-35
2022/05/12 00:30:18;;;;;;;3.45;2.83;;;22.00;36.20;;;22.34;32.13;97436.63;5042326;28;20041;-35
2022/05/12 00:32:47;;;;;;;5.63;3.47;;;21.90;36.60;;;22.28;32.41;97426.75;5041162;28;20041;-35
2022/05/12 00:35:16;;;;;;;3.58;2.78;;;21.80;36.70;;;22.22;32.91;97449.41;5041677;28;20046;-35
2022/05/12 00:37:45;;;;;;;4.38;3.40;;;21.80;37.00;;;22.18;32.36;97440.09;5042333;28;20366;-35
2022/05/12 00:40:15;;;;;;;3.00;2.60;;;21.80;36.80;;;22.14;32.05;97438.91;5042402;28;20055;-35
2022/05/12 00:43:21;;;;;;;4.45;2.72;;;21.80;36.40;;;22.05;32.36;97449.31;5041918;28;20320;-35
2022/05/12 00:45:49;;;;;;;2.83;2.63;;;21.70;36.90;;;21.98;32.24;97441.34;5049400;28;20246;-36
2022/05/12 00:48:17;;;;;;;3.45;2.97;;;21.60;36.40;;;21.95;32.10;97446.41;5041991;28;20229;-36
2022/05/12 00:50:46;;;;;;;5.60;3.05;;;21.60;36.50;;;21.93;32.58;97453.94;5041529;28;20041;-35
2022/05/12 00:53:15;;;;;;;4.72;3.10;;;21.50;36.70;;;21.89;32.57;97459.03;5041859;28;20051;-35
2022/05/12 00:55:45;;;;;;;4.18;3.05;;;21.50;37.10;;;21.85;32.78;97463.28;5040052;28;20045;-35
2022/05/12 00:58:17;;;;;;;2.97;2.67;;;21.40;37.10;;;21.48;34.59;97468.94;5041317;28;20049;-36
2022/05/12 01:00:45;;;;;;;4.82;3.33;;;21.20;39.80;;;21.47;34.97;97472.72;5041783;28;20056;-35
2022/05/12 01:03:19;;;;;;;4.40;3.47;;;21.20;39.40;;;21.56;34.66;97479.44;5040817;28;20049;-35
2022/05/12 01:05:47;;;;;;;5.25;2.92;;;21.40;39.60;;;21.66;34.44;97483.44;5039907;28;20049;-36
2022/05/12 01:08:18;;;;;;;4.05;2.95;;;21.50;38.90;;;21.73;35.09;97478.69;5041785;28;20348;-35
2022/05/12 01:10:55;;;;;;;5.38;3.53;;;21.60;39.80;;;21.76;35.48;97481.75;5040677;28;20054;-35
2022/05/12 01:13:28;;;;;;;5.43;3.40;;;21.60;39.60;;;21.59;36.66;97476.22;5040680;28;20045;-35
2022/05/12 01:16:00;;;;;;;4.55;2.85;;;21.50;41.90;;;21.51;37.15;97479.28;5041706;28;20061;-34
2022/05/12 01:18:32;;;;;;;4.07;3.53;;;21.50;42.30;;;21.54;37.74;97478.84;5041828;28;20045;-34
2022/05/12 01:21:00;;;;;;;2.85;2.63;;;21.50;42.60;;;21.55;37.67;97487.78;5041667;28;20049;-34
2022/05/12 01:23:31;;;;;;;3.90;3.50;;;21.60;42.70;;;21.69;37.05;97491.88;5039859;28;20060;-34
2022/05/12 01:26:03;;;;;;;7.88;4.30;;;21.60;42.00;;;21.69;37.60;97491.06;5044849;28;20060;-34
2022/05/12 01:28:31;;;;;;;4.28;3.50;;;21.60;42.50;;;21.71;37.27;97497.88;5045974;28;20129;-35
2022/05/12 01:31:00;;;;;;;3.55;3.15;;;21.60;42.20;;;21.75;37.67;97506.38;5045483;28;20335;-35
2022/05/12 01:33:28;;;;;;;6.50;3.70;;;21.70;43.10;;;21.82;37.18;97509.78;5045422;28;20361;-35
2022/05/12 01:35:57;;;;;;;3.55;2.90;;;21.70;42.30;;;21.81;37.36;97513.59;5043975;28;20327;-35
2022/05/12 01:38:25;;;;;;;5.80;3.30;;;21.70;42.10;;;21.76;37.09;97511.56;5045449;28;20095;-35
2022/05/12 01:40:53;;;;;;;6.20;3.00;;;21.50;42.20;;;21.69;37.18;97518.16;5044144;28;20057;-35
2022/05/12 01:43:22;;;;;;;3.67;2.83;;;21.50;42.40;;;21.49;37.26;97511.22;5045228;28;20045;-35
2022/05/12 01:45:50;;;;;;;5.22;2.92;;;21.30;42.40;;;21.46;37.41;97518.97;5044780;28;20429;-35
2022/05/12 01:48:19;;;;;;;4.07;2.70;;;21.30;42.60;;;21.42;37.56;97530.25;5045502;28;20053;-35
2022/05/12 01:50:48;;;;;;;3.65;2.60;;;21.20;43.10;;;21.33;37.82;97528.13;5045138;28;20342;-35
2022/05/12 01:53:17;;;;;;;5.00;3.10;;;21.10;43.20;;;21.46;37.30;97525.22;5045144;28;20041;-35
2022/05/12 01:55:48;;;;;;;5.13;4.00;;;21.20;42.60;;;21.54;37.59;97518.63;5043218;28;20075;-36
2022/05/12 01:58:19;;;;;;;4.20;2.72;;;21.30;43.30;;;21.54;37.46;97529.44;5045287;28;20051;-35
2022/05/12 02:00:48;;;;;;;4.15;2.72;;;21.30;43.80;;;21.49;37.53;97530.16;5045114;28;20049;-34
2022/05/12 02:03:16;;;;;;;3.28;2.92;;;21.20;42.90;;;21.52;37.53;97531.56;5045019;28;20051;-35
2022/05/12 02:05:45;;;;;;;3.47;3.05;;;21.20;43.40;;;21.44;38.09;97535.44;5043506;28;20052;-35
2022/05/12 02:08:15;;;;;;;3.90;2.70;;;21.20;44.70;;;21.52;37.91;97548.66;5045242;28;20051;-35
2022/05/12 02:10:48;;;;;;;3.45;2.80;;;21.20;43.20;;;21.47;38.25;97543.13;5043740;28;20355;-35
2022/05/12 02:13:20;;;;;;;4.35;3.28;;;21.20;43.80;;;21.53;38.06;97547.59;5045025;28;20045;-35
2022/05/12 02:15:48;;;;;;;3.92;2.75;;;21.30;44.00;;;21.34;38.92;97546.81;5044327;28;20052;-36
2022/05/12 02:18:19;;;;;;;5.05;3.10;;;21.20;44.60;;;;;;5045076;28;20050;-35
2022/05/12 02:20:47;;;;;;;3.88;2.60;;;21.10;45.20;;;21.28;39.57;97558.59;5043541;28;20266;-35
2022/05/12 02:23:15;;;;;;;4.70;3.30;;;21.00;45.40;;;21.26;39.22;97565.28;5044666;28;20045;-35
2022/05/12 02:25:43;;;;;;;5.30;2.97;;;21.00;45.60;;;20.95;40.98;97569.91;5043915;28;20059;-35
2022/05/12 02:28:11;;;;;;;4.43;2.58;;;20.80;47.10;;;21.08;39.87;97572.44;5043416;28;20071;-34
2022/05/12 02:30:39;;;;;;;3.22;2.92;;;20.80;47.00;;;21.10;39.65;97573.03;5044114;28;20358;-35
2022/05/12 02:33:08;;;;;;;4.22;2.83;;;20.80;45.90;;;20.94;40.73;97582.63;5044626;28;20069;-35
2022/05/12 02:35:37;;;;;;;3.45;2.67;;;20.80;47.00;;;20.84;40.61;97582.34;5042997;28;20216;-35
2022/05/12 02:38:08;;;;;;;5.45;3.00;;;20.70;46.80;;;20.76;40.75;97577.22;5043120;28;20339;-35
2022/05/12 02:40:36;;;;;;;3.45;2.17;;;20.60;47.00;;;20.75;40.73;97583.72;5044248;28;20050;-35
2022/05/12 02:43:23;;;;;;;3.47;2.33;;;20.60;47.00;;;20.87;40.67;97583.75;5044298;28;20059;-35
2022/05/12 02:46:00;;;;;;;4.53;2.83;;;20.70;46.80;;;20.75;41.18;97584.53;5043614;28;20235;-36
2022/05/12 02:48:38;;;;;;;2.38;1.98;;;20.60;47.00;;;20.85;40.68;97595.63;5044217;28;20063;-36
2022/05/12 02:51:07;;;;;;;3.17;2.20;;;20.70;46.70;;;20.89;40.55;97587.06;5043730;28;20389;-36
2022/05/12 02:53:36;;;;;;;3.45;2.38;;;20.70;46.80;;;20.86;41.11;97596.47;5044142;28;20052;-36
2022/05/12 02:56:05;;;;;;;4.05;3.05;;;20.80;47.20;;;20.92;40.42;97603.66;5043496;28;20049;-35
2022/05/12 02:58:34;;;;;;;3.45;2.33;;;20.80;46.70;;;20.95;40.47;97596.97;5044095;28;20050;-35
2022/05/12 03:01:02;;;;;;;3.83;2.13;;;20.80;46.70;;;20.94;40.79;97606.97;5043701;28;20049;-36
2022/05/12 03:03:30;;;;;;;5.68;2.95;;;20.80;47.10;;;20.89;41.13;97616.81;5044098;28;20055;-35
2022/05/12 03:05:58;;;;;;;5.45;2.38;;;20.70;47.80;;;20.85;40.89;97609.16;5043167;28;20192;-35
2022/05/12 03:08:26;;;;;;;5.10;2.20;;;20.60;47.50;;;20.75;41.54;97608.06;5041058;28;20437;-35
2022/05/12 03:10:54;;;;;;;4.57;2.08;;;20.40;48.30;;;20.80;40.89;97613.59;5043156;28;20102;-34
2022/05/12 03:13:23;;;;;;;3.45;2.13;;;20.50;47.70;;;20.72;41.74;97622.03;5043898;28;20056;-34
2022/05/12 03:15:52;;;;;;;3.28;2.20;;;20.40;49.10;;;20.64;41.95;97620.44;5044116;28;20232;-35
2022/05/12 03:18:20;;;;;;;2.15;1.95;;;20.30;49.00;;;20.46;42.45;97621.25;5043710;28;20045;-35
2022/05/12 03:20:48;;;;;;;3.17;2.08;;;20.10;50.30;;;20.43;42.20;97625.25;5043509;28;20052;-36
2022/05/12 03:23:23;;;;;;;2.95;2.13;;;20.10;49.40;;;20.52;42.20;97633.06;5043574;28;20051;-35
2022/05/12 03:25:52;;;;;;;2.25;2.00;;;20.30;49.00;;;20.59;41.68;97633.81;5042091;28;20059;-35
2022/05/12 03:28:21;;;;;;;4.03;2.58;;;20.40;48.60;;;20.61;41.90;97640.66;5043727;28;20049;-35
2022/05/12 03:30:50;;;;;;;4.15;2.30;;;20.40;48.30;;;20.62;41.73;97642.31;5043300;28;20201;-35
2022/05/12 03:33:18;;;;;;;4.72;2.33;;;20.40;48.30;;;20.69;41.59;97641.44;5043396;28;20353;-35
2022/05/12 03:35:46;;;;;;;4.47;2.30;;;20.40;48.20;;;20.65;41.78;97643.75;5042921;28;20072;-35
2022/05/12 03:38:15;;;;;;;2.10;1.88;;;20.40;48.70;;;20.42;42.49;97634.38;5043510;28;20049;-35
2022/05/12 03:40:43;;;;;;;3.90;2.40;;;20.20;50.30;;;20.48;42.24;97645.38;5042859;28;20067;-35
2022/05/12 03:44:46;;;;;;;2.03;1.83;;;20.20;49.30;;;20.51;42.07;97643.03;5043094;28;20347;-36
2022/05/12 03:46:00;;;;;;;4.43;2.10;;;20.30;49.20;;;20.42;42.75;97647.09;5042016;28;20049;-35
2022/05/12 03:48:28;;;;;;;3.45;1.88;;;20.20;49.60;;;20.38;42.80;97649.41;5042762;28;20344;-34
2022/05/12 03:50:56;;;;;;;2.75;1.95;;;20.10;49.80;;;20.44;42.80;97655.81;5042827;28;20051;-35
2022/05/12 03:53:27;;;;;;;4.80;2.50;;;20.20;50.00;;;20.36;42.79;97653.41;5042832;28;20041;-35
2022/05/12 03:55:55;;;;;;;4.30;2.10;;;20.00;51.10;;;20.26;43.64;97649.31;5042825;28;20055;-35
2022/05/12 03:58:23;;;;;;;1.92;1.67;;;20.00;51.20;;;20.20;43.38;97660.19;5042630;28;20041;-35
2022/05/12 04:00:53;;;;;;;2.35;2.15;;;19.90;52.20;;;20.17;43.82;97669.56;5042818;28;20049;-35
2022/05/12 04:03:21;;;;;;;3.83;2.13;;;19.80;51.60;;;19.92;44.21;97674.16;5042786;28;20351;-35
2022/05/12 04:05:49;;;;;;;2.00;1.80;;;19.60;52.80;;;20.01;44.05;97673.66;5042281;28;20057;-34
2022/05/12 04:08:17;;;;;;;3.47;2.03;;;19.60;51.70;;;19.93;44.49;97681.22;5042371;28;20288;-34
2022/05/12 04:10:45;;;;;;;3.83;1.75;;;19.60;52.10;;;20.04;43.96;97681.31;5042867;28;20069;-35
2022/05/12 04:13:13;;;;;;;3.08;2.00;;;19.80;51.30;;;19.99;44.39;97683.06;5042777;28;20049;-35
2022/05/12 04:15:41;;;;;;;2.95;2.00;;;19.80;52.70;;;20.04;44.21;97691.31;5042225;28;20055;-35
2022/05/12 04:18:09;;;;;;;3.30;2.00;;;19.70;51.90;;;20.09;44.15;97690.66;5042357;28;20052;-35
2022/05/12 04:20:37;;;;;;;4.35;2.47;;;19.80;51.60;;;20.12;44.03;97690.19;5042194;28;20392;-35
2022/05/12 04:23:06;;;;;;;2.92;2.55;;;19.90;51.50;;;20.15;44.25;97701.41;5042339;28;20369;-35
2022/05/12 04:25:34;;;;;;;3.58;2.33;;;19.90;51.70;;;20.11;44.38;97710.19;5041942;28;20049;-34
2022/05/12 04:28:03;;;;;;;5.97;2.05;;;19.80;51.80;;;20.10;44.12;97711.22;5042205;28;20221;-34
2022/05/12 04:30:32;;;;;;;4.35;2.15;;;19.80;51.70;;;20.13;44.32;97708.91;5041285;28;20053;-35
2022/05/12 04:35:11;;;;;;;4.30;2.58;;;20.00;51.50;;;20.16;44.19;97713.03;5042444;28;20045;-35
2022/05/12 04:35:48;;;;;;;2.53;2.20;;;20.00;51.10;;;20.05;44.58;97717.28;5042512;28;20053;-35
2022/05/12 04:38:16;;;;;;;2.22;1.80;;;19.80;52.10;;;19.99;44.73;97726.28;5041924;28;20041;-34
2022/05/12 04:40:45;;;;;;;9.50;2.53;;;19.70;52.30;;;20.03;44.40;97728.31;5042046;28;20056;-34
2022/05/12 04:43:12;;;;;;;2.95;2.05;;;19.80;51.80;;;19.97;45.04;97728.38;5041896;28;20133;-34
2022/05/12 04:45:40;;;;;;;3.88;1.90;;;19.80;52.40;;;20.01;44.74;97737.69;5041796;28;20060;-35
2022/05/12 04:48:08;;;;;;;4.85;2.10;;;19.80;52.00;;;20.05;44.81;97728.09;5041989;28;20045;-35
2022/05/12 04:50:41;;;;;;;2.60;1.85;;;19.90;51.60;;;20.08;44.74;97743.03;5042039;28;20377;-35
2022/05/12 04:53:10;;;;;;;2.92;1.98;;;19.90;51.90;;;20.05;44.57;97742.44;5041677;28;20063;-34
2022/05/12 04:55:38;;;;;;;2.88;1.90;;;19.90;51.70;;;20.08;44.92;97745.75;5041665;28;20046;-35
2022/05/12 04:58:06;;;;;;;4.65;2.25;;;20.00;51.70;;;20.10;44.84;97746.34;5041778;28;20053;-34
2022/05/12 05:00:40;;;;;;;2.15;1.75;;;20.00;51.70;;;20.03;45.28;97741.81;5041931;28;20366;-35
2022/05/12 05:03:10;;;;;;;3.20;2.10;;;19.80;52.50;;;20.06;44.83;97740.56;5024798;28;20347;-35
2022/05/12 05:05:47;;;;;;;4.25;1.90;;;19.90;52.60;;;20.02;45.28;97759.06;5041472;28;20139;-35
2022/05/12 05:08:19;;;;;;;3.65;2.30;;;19.80;53.30;;;20.02;45.14;97756.38;5041540;28;20057;-35
2022/05/12 05:10:48;;;;;;;4.47;2.00;;;19.80;52.60;;;20.02;45.15;97756.38;5041898;28;20239;-34
2022/05/12 05:13:19;;;;;;;4.57;2.00;;;19.90;52.60;;;20.00;45.26;97760.34;5041655;28;20052;-34
2022/05/12 05:15:50;;;;;;;2.47;2.03;;;19.80;52.70;;;19.92;45.58;97763.31;5040405;28;20058;-34
2022/05/12 05:18:20;;;;;;;4.15;1.83;;;19.80;53.10;;;19.90;45.97;97766.22;5041751;28;20052;-35
2022/05/12 05:20:49;;;;;;;2.65;2.05;;;19.70;53.50;;;19.86;46.05;97767.72;5041450;28;20045;-34
2022/05/12 05:23:21;;;;;;;2.40;1.83;;;19.70;53.60;;;19.82;46.25;97769.19;5041310;28;20053;-34
2022/05/12 05:25:51;;;;;;;2.95;1.83;;;19.70;54.20;;;19.80;46.20;97780.22;5041266;28;20216;-34
2022/05/12 05:28:19;;;;;;;2.45;1.73;;;19.60;54.10;;;19.85;46.03;97784.97;5041376;28;20235;-34
2022/05/12 05:30:48;;;;;;;3.70;1.95;;;19.70;53.70;;;19.80;46.67;97793.72;5041510;28;20355;-34
2022/05/12 05:33:16;;;;;;;2.35;1.73;;;19.70;54.60;;;19.65;47.37;97807.47;5039896;28;20250;-35
2022/05/12 05:35:44;;;;;;;3.85;1.50;;;19.50;56.50;;;19.68;47.81;97812.47;5041007;28;20049;-35
2022/05/12 05:38:12;;;;;;;3.95;1.70;;;19.40;57.00;;;19.61;48.01;97814.34;5042159;28;20049;-35
2022/05/12 05:40:40;;;;;;;3.03;1.70;;;19.40;56.60;;;19.58;48.34;97822.06;5040433;28;20045;-35
2022/05/12 05:43:14;;;;;;;2.45;1.70;;;19.40;56.90;;;19.44;48.69;97832.09;5041571;28;20071;-34
2022/05/12 05:45:42;;;;;;;3.75;1.70;;;19.30;57.80;;;19.19;49.43;97831.94;5040740;28;20045;-35
2022/05/12 05:48:10;;;;;;;2.78;1.55;;;19.00;58.70;;;18.99;50.06;97832.81;5041715;28;20051;-35
2022/05/12 05:53:38;;;;;;;2.65;1.52;;;18.90;58.90;;;19.13;49.99;97839.03;5041367;28;20045;-34
2022/05/12 05:56:12;;;;;;;3.50;1.63;;;19.00;59.20;;;19.15;50.05;97844.22;5040773;28;20045;-33
2022/05/12 05:58:40;;;;;;;1.92;1.50;;;19.00;59.10;;;18.94;50.65;97846.13;5042179;28;20049;-34
2022/05/12 06:01:08;;;;;;;2.97;1.70;;;18.90;59.70;;;19.02;50.36;97845.09;5041730;28;20339;-34
2022/05/12 06:03:38;;;;;;;2.15;1.67;;;19.00;59.20;;;19.17;50.42;97851.03;5041308;28;20055;-36
2022/05/12 06:06:06;;;;;;;2.33;2.10;;;19.10;59.60;;;19.17;50.22;97845.66;5040548;28;20063;-36
2022/05/12 06:08:34;;;;;;;3.50;1.60;;;19.20;58.90;;;19.17;50.63;97861.03;5041370;28;20055;-35
2022/05/12 06:11:05;;;;;;;2.33;1.70;;;19.10;59.50;;;19.27;50.51;97856.03;5039481;28;20045;-35
2022/05/12 06:13:34;;;;;;;3.33;1.50;;;19.20;59.10;;;19.38;50.08;97865.34;5044950;28;20365;-35
2022/05/12 06:16:03;;;;;;;3.30;1.65;;;19.30;59.00;;;19.28;50.57;97869.28;5043210;28;20045;-35
2022/05/12 06:18:31;;;;;;;2.55;2.00;;;19.30;59.00;;;19.42;50.39;97874.66;5043940;28;20323;-35
2022/05/12 06:20:59;;;;;;;1.90;1.60;;;19.40;58.60;;;19.39;50.63;97870.53;5044472;28;20051;-35
2022/05/12 06:23:27;;;;;;;3.15;1.60;;;19.40;58.80;;;19.20;51.38;97883.03;5044673;28;20347;-35
2022/05/12 06:25:55;;;;;;;5.15;2.03;;;19.20;59.80;;;19.43;51.03;97889.84;5043362;28;20046;-35
2022/05/12 06:28:22;;;;;;;3.50;1.83;;;19.40;59.60;;;19.62;50.14;97882.72;5045275;28;20057;-35
2022/05/12 06:30:50;;;;;;;2.15;1.67;;;19.60;59.30;;;19.63;49.98;97887.06;5044330;28;20053;-35
2022/05/12 06:33:19;;;;;;;2.35;2.00;;;19.60;58.40;;;19.64;49.76;97891.44;5044297;28;20041;-34
2022/05/12 06:35:48;;;;;;;1.92;1.58;;;19.60;58.10;;;19.56;49.86;97888.94;5043989;28;20042;-34
2022/05/12 06:38:16;;;;;;;3.47;1.70;;;19.50;58.30;;;19.64;49.63;97886.03;5043047;28;20247;-34
2022/05/12 06:40:44;;;;;;;1.98;1.80;;;19.60;58.10;;;19.55;50.75;97885.44;5044266;28;20362;-34
2022/05/12 06:43:13;;;;;;;4.07;2.38;;;19.60;59.10;;;19.58;50.65;97885.00;5044007;28;20049;-34
2022/05/12 06:45:41;;;;;;;2.33;1.83;;;19.50;59.70;;;19.56;50.68;97900.59;5043778;28;20049;-35
2022/05/12 06:48:09;;;;;;;2.75;1.90;;;19.40;59.50;;;19.65;50.13;97899.28;5044219;28;20351;-35
2022/05/12 06:50:37;;;;;;;6.65;2.13;;;19.50;59.20;;;19.59;50.00;97902.03;5044175;28;20056;-37
2022/05/12 06:53:05;;;;;;;2.72;1.80;;;19.50;58.50;;;19.52;50.08;97902.03;5044126;28;20046;-37
2022/05/12 06:55:33;;;;;;;5.25;1.90;;;19.30;58.60;;;19.55;49.98;97915.13;5043780;28;20042;-37
2022/05/12 06:58:01;;;;;;;3.45;1.80;;;19.40;59.10;;;19.45;50.13;97912.03;5042766;28;20049;-33
2022/05/12 07:00:29;;;;;;;2.47;1.83;;;19.30;59.20;;;19.47;50.27;97921.59;5044032;28;20049;-33
2022/05/12 07:02:57;;;;;;;3.92;2.53;;;19.30;59.20;;;19.44;50.20;97913.91;5043981;28;20051;-33
2022/05/12 07:05:26;;;;;;;3.97;2.00;;;19.30;59.00;;;19.36;50.68;97922.22;5043640;28;20053;-33
2022/05/12 07:07:54;;;;;;;4.28;2.05;;;19.30;59.80;;;19.33;50.74;97929.91;5043823;28;20056;-33
2022/05/12 07:10:25;;;;;;;4.00;1.70;;;19.20;59.30;;;19.31;50.67;97919.34;5043768;28;20051;-33
2022/05/12 07:12:53;;;;;;;3.95;2.08;;;19.20;59.10;;;19.39;50.48;97919.13;5043783;28;20361;-33
2022/05/12 07:15:25;;;;;;;4.55;1.80;;;19.30;59.30;;;19.45;50.42;97920.16;5043105;28;20045;-33
2022/05/12 07:17:55;;;;;;;2.33;1.85;;;19.40;58.70;;;19.44;50.55;97926.56;5042905;28;20049;-32
2022/05/12 07:28:46;;;;;;;2.72;1.80;;;19.60;58.50;;;19.57;50.42;97929.25;5042632;28;20049;-34
2022/05/12 07:31:14;;;;;;;3.63;2.40;;;19.60;58.10;;;19.64;50.08;97931.94;5033372;28;20063;-33
2022/05/12 07:33:45;;;;;;;4.53;1.90;;;19.70;58.20;;;19.66;50.12;97936.06;5031714;28;20049;-33
2022/05/12 07:36:25;;;;;;;3.42;2.35;;;19.80;58.00;;;19.78;50.01;97928.19;5037296;28;20047;-33
2022/05/12 07:39:00;;;;;;;4.15;1.75;;;19.80;57.90;;;19.77;49.93;97931.09;5038514;28;20046;-33
2022/05/12 07:41:33;;;;;;;2.88;2.10;;;19.80;57.70;;;19.76;50.39;97932.97;5037160;28;20051;-33
2022/05/12 07:44:07;;;;;;;2.55;1.85;;;19.80;58.50;;;19.71;50.51;97934.59;5020079;28;20059;-34
2022/05/12 07:46:35;;;;;;;2.17;1.70;;;19.70;59.00;;;19.84;50.08;97932.72;5042792;28;20347;-34
2022/05/12 07:49:03;;;;;;;3.55;1.73;;;19.80;58.10;;;19.61;50.72;97941.28;5041597;28;20063;-34
2022/05/12 07:51:31;;;;;;;3.17;1.80;;;19.60;58.90;;;19.42;50.88;97932.19;5036243;28;20057;-34
2022/05/12 07:53:59;;;;;;;2.60;2.03;;;19.40;59.60;;;19.54;50.45;97940.47;5035724;28;20045;-34
2022/05/12 07:56:29;;;;;;;8.07;2.22;;;19.40;59.10;;;19.62;50.69;97936.72;5033871;28;20541;-33
2022/05/12 07:58:59;;;;;;;3.75;1.95;;;19.60;59.10;;;19.66;50.20;97935.25;5031665;28;20064;-33
2022/05/12 08:01:27;;;;;;;3.78;2.00;;;19.70;58.30;;;19.61;50.90;97940.47;5038976;28;20358;-34
2022/05/12 08:03:55;;;;;;;3.45;1.88;;;19.70;59.30;;;19.50;51.14;97939.22;5039939;28;20049;-33
2022/05/12 08:06:23;;;;;;;6.82;2.92;;;19.70;58.80;;;19.42;51.71;97942.16;5040033;28;20052;-33
2022/05/12 08:08:52;;;;;;;5.28;1.80;;;19.60;59.70;;;19.50;51.15;97943.78;5040314;28;20220;-33
2022/05/12 08:13:14;;;;;;;4.15;2.20;;;19.70;58.50;;;19.76;50.98;97938.38;5072955;28;20371;-35
2022/05/12 08:15:46;;;;;;;4.05;2.40;;;19.90;58.70;;;19.87;50.72;97939.56;5054223;28;20056;-35
2022/05/12 08:18:23;;;;;;;8.82;2.42;;;20.00;58.20;;;19.87;50.72;97953.06;5054924;28;20049;-35
2022/05/12 08:20:52;;;;;;;2.25;1.95;;;20.10;58.30;;;19.92;50.48;97952.44;5053586;28;20051;-35
2022/05/12 08:23:21;;;;;;;28.70;4.53;;;20.10;58.20;;;19.73;51.06;97949.56;5066799;28;20051;-40
2022/05/12 08:25:50;;;;;;;3.55;1.90;;;20.00;58.20;;;19.92;51.26;97944.34;5065723;28;20063;-38
2022/05/12 08:28:35;;;;;;;3.58;1.77;;;20.20;58.10;;;19.97;50.72;97950.75;5061946;28;20062;-39
2022/05/12 08:31:12;;;;;;;3.28;1.80;;;20.30;57.40;;;20.12;50.69;97950.47;5052659;28;20389;-39
2022/05/12 08:33:55;;;;;;;2.70;1.80;;;20.50;58.20;;;20.04;50.39;97948.03;5038381;28;20347;-36
2022/05/12 08:36:29;;;;;;;2.65;1.75;;;20.50;56.60;;;19.99;50.42;97955.97;5069637;28;20045;-38
2022/05/12 08:39:07;;;;;;;2.58;1.88;;;20.50;56.20;;;19.77;50.71;97956.22;5069559;28;20286;-39
2022/05/12 08:42:39;;;;;;;2.50;1.75;;;20.40;56.30;;;20.12;50.31;97957.75;5060565;28;20076;-43
2022/05/12 08:45:11;;;;;;;2.97;2.58;;;20.60;56.30;;;20.01;49.96;97953.88;5050546;28;20052;-41
2022/05/12 08:47:44;;;;;;;5.13;2.75;;;20.70;55.70;;;20.17;51.15;97957.94;5056351;28;20051;-37
2022/05/12 08:50:20;;;;;;;;;;;20.80;56.40;;;20.27;50.52;97951.03;5057898;28;20053;-40
2022/05/12 08:52:57;;;;;;;3.00;2.50;;;21.00;56.00;;;20.41;49.66;97957.22;5057483;28;20091;-40
2022/05/12 08:55:39;;;;;;;3.40;2.63;;;21.00;55.50;;;20.41;49.48;97965.31;5056914;28;20045;-41
2022/05/12 08:58:20;;;;;;;3.30;2.40;;;21.00;55.20;;;20.38;50.01;97964.91;5058706;28;20045;-43
2022/05/12 09:01:36;;;;;;;3.60;2.72;;;21.00;55.90;;;20.15;49.67;97965.44;5057475;28;20346;-41
2022/05/12 09:04:30;;;;;;;2.67;2.42;;;20.80;55.30;;;20.37;49.58;97965.94;5056106;28;20045;-43
2022/05/12 09:07:28;;;;;;;2.72;2.40;;;20.80;55.50;;;20.46;49.70;97965.47;5053574;28;20060;-43
2022/05/12 09:10:43;;;;;;;4.90;2.50;;;20.80;56.00;;;20.54;49.53;97952.75;5051484;28;20328;-43
2022/05/12 09:13:24;;;;;;;3.20;2.30;;;21.00;55.80;;;20.51;49.73;97964.84;5052350;28;20055;-41
2022/05/12 09:16:32;;;;;;;2.83;2.20;;;21.00;55.50;;;20.58;49.74;97962.91;5051759;28;20044;-41
2022/05/12 09:19:01;;;;;;;5.03;2.30;;;21.10;55.60;;;20.72;50.01;97965.56;5048735;28;20051;-42
2022/05/12 09:21:35;;;;;;;3.15;2.38;;;21.20;56.10;;;20.51;50.04;97972.97;5049884;28;20095;-42
2022/05/12 09:24:04;;;;;;;3.97;2.13;;;21.10;55.50;;;20.68;49.08;97948.13;5038144;28;20263;-42
2022/05/12 09:26:51;;;;;;;3.28;2.47;;;21.10;55.30;;;20.75;49.43;97965.13;5035376;28;20055;-40
2022/05/12 09:29:24;;;;;;;3.72;2.35;;;21.20;55.20;;;20.90;49.10;97965.66;5034128;28;20060;-40
2022/05/12 09:32:23;;;;;;;6.80;3.60;;;21.40;55.60;;;21.02;48.72;97971.19;5035556;28;20359;-42
2022/05/12 09:35:24;;;;;;;6.60;3.25;;;21.40;55.00;;;20.89;49.19;97968.56;5031110;28;20049;-42
2022/05/12 09:37:54;;;;;;;5.43;2.42;;;21.30;55.10;;;20.72;49.24;97976.38;5030435;28;20041;-43
2022/05/12 09:40:37;;;;;;;5.03;2.42;;;21.10;55.20;;;20.91;49.19;97966.47;5032959;28;20367;-41
2022/05/12 09:43:31;;;;;;;5.53;3.28;;;21.30;55.60;;;20.84;48.92;97959.25;5031251;28;20177;-41
2022/05/12 09:46:20;;;;;;;5.13;2.85;;;21.30;54.30;;;20.95;48.47;97957.69;5030207;28;20240;-40
2022/05/12 09:48:50;;;;;;;3.50;2.60;;;21.40;54.00;;;20.93;47.72;97956.25;5031526;28;20592;-39
2022/05/12 09:51:34;;;;;;;3.05;2.58;;;21.30;53.40;;;20.85;47.47;97951.94;5032474;28;20347;-40
2022/05/12 09:54:34;;;;;;;4.75;2.40;;;21.30;53.20;;;20.72;48.47;97970.97;5030652;28;20045;-41
2022/05/12 09:57:18;;;;;;;4.70;3.33;;;21.20;54.50;;;20.94;47.99;97952.53;5019280;28;20060;-41
2022/05/12 09:59:56;;;;;;;3.40;2.95;;;21.30;54.40;;;20.92;47.84;97954.59;5028035;28;20054;-42
2022/05/12 10:08:26;;;;;;;3.10;2.65;;;21.50;53.50;;;21.16;48.20;97939.41;5029004;28;20247;-41
2022/05/12 10:11:01;;;;;;;4.18;2.92;;;21.70;53.90;;;21.26;47.85;97930.78;5028715;28;20052;-41
2022/05/12 10:13:42;;;;;;;4.00;3.08;;;21.80;53.00;;;21.38;46.33;97939.81;5030075;28;20045;-40
2022/05/12 10:16:13;;;;;;;6.07;2.92;;;22.00;51.30;;;21.22;45.86;97923.09;5029995;28;20053;-40
2022/05/12 10:18:55;;;;;;;5.55;3.20;;;21.80;51.00;;;21.38;46.13;97916.31;5028057;28;20394;-41
2022/05/12 10:21:44;;;;;;;3.90;2.90;;;21.90;51.00;;;21.50;45.55;97921.84;5028810;28;20387;-42
2022/05/12 10:24:59;;;;;;;3.00;2.58;;;22.00;50.50;;;21.63;46.13;97916.28;5029789;28;20259;-41
2022/05/12 10:27:46;;;;;;;3.70;2.85;;;22.10;51.10;;;21.66;45.85;97914.16;5026071;28;20275;-42
2022/05/12 10:30:26;;;;;;;5.63;2.50;;;22.20;51.10;;;21.54;46.51;97917.63;5030852;28;20064;-41
2022/05/12 10:33:20;;;;;;;5.38;2.67;;;22.10;51.30;;;21.57;46.51;97911.72;5028537;28;20287;-43
2022/05/12 10:36:14;;;;;;;;;;;22.10;51.50;;;21.51;47.62;97920.75;5017642;28;20060;-40
2022/05/12 10:39:12;;;;;;;4.53;3.33;;;22.00;52.70;;;21.69;46.61;97908.28;5029975;28;19917;-41
2022/05/12 10:42:20;;;;;;;6.70;3.17;;;22.20;52.00;;;21.76;45.69;97903.63;5027533;28;20370;-43
2022/05/12 10:45:14;;;;;;;5.07;2.67;;;22.40;50.80;;;21.70;46.03;97904.53;5013911;28;20064;-42
2022/05/12 10:48:12;;;;;;;5.15;3.63;;;22.30;50.80;;;21.76;44.89;97900.91;5026977;28;20081;-40
2022/05/12 10:51:03;;;;;;;5.28;3.08;;;22.40;49.10;;;21.86;45.35;97908.50;5027519;28;20052;-44
2022/05/12 10:53:58;;;;;;;5.18;3.63;;;22.40;50.00;;;21.62;44.57;97901.06;5028024;28;20052;-44
2022/05/12 10:56:59;;;;;;;4.00;2.80;;;22.20;49.00;;;21.75;44.25;97900.09;5029323;28;20408;-43
2022/05/12 11:00:03;;;;;;;5.68;3.05;;;22.40;48.30;;;21.77;43.70;97900.69;5044214;28;20053;-43
2022/05/12 11:02:40;;;;;;;;;;;22.40;47.80;;;21.84;43.52;97889.75;5028575;28;20063;-42
2022/05/12 11:05:36;;;;;;;4.45;3.15;;;22.60;48.00;;;22.06;44.41;97892.78;5029067;28;19917;-44